Yellow Mule RAWS (NWS)

Jump to table bottom
Date/Time Wind Direction Wind Speed knots Wind Gust knots RH % Accumulated Precip Inches Air Temp Fahrenheit
2021-12-02 17:04 S 11 28 59 10.58 37
2021-12-02 16:04 SSW 17 34 56 10.58 39
2021-12-02 15:04 SSW 22 35 55 10.58 40
2021-12-02 14:04 S 22 37 52 10.58 41
2021-12-02 13:04 SSW 23 36 52 10.58 42
2021-12-02 12:04 SSW 28 43 56 10.58 40
2021-12-02 11:04 S 16 35 56 10.58 42
2021-12-02 10:04 S 16 31 62 10.58 39
2021-12-02 09:04 S 13 23 68 10.58 37
2021-12-02 08:04 S 15 35 67 10.58 37
2021-12-02 07:04 SSW 23 31 62 10.58 38
2021-12-02 06:04 S 14 23 72 10.58 35
2021-12-02 05:04 S 12 26 73 10.58 35
2021-12-02 04:04 S 12 27 71 10.58 36
2021-12-02 03:04 SSW 16 29 68 10.58 37
2021-12-02 02:04 S 15 25 80 10.58 34
2021-12-02 01:04 S 12 25 87 10.58 30
2021-12-02 00:04 SSE 10 20 84 10.58 32
2021-12-01 23:04 S 10 21 78 10.58 33
2021-12-01 22:04 S 8 26 76 10.58 35
2021-12-01 21:04 S 13 27 73 10.58 37
2021-12-01 20:04 SSW 10 25 73 10.58 37
2021-12-01 19:04 S 11 23 80 10.58 35
2021-12-01 18:04 S 13 23 77 10.58 36
2021-12-01 17:04 S 9 19 81 10.58 34
2021-12-01 16:04 SSW 7 29 74 10.58 37
2021-12-01 15:04 SSW 17 37 70 10.58 40
2021-12-01 14:04 SSW 10 23 69 10.58 40
2021-12-01 13:04 SSW 14 26 68 10.58 40
2021-12-01 12:04 S 10 20 74 10.58 37
2021-12-01 11:04 S 9 17 83 10.58 34
2021-12-01 10:04 S 9 21 81 10.58 34
2021-12-01 09:04 S 14 24 83 10.58 34
2021-12-01 08:04 S 8 25 86 10.58 33
2021-12-01 07:04 SSW 15 22 85 10.58 34
2021-12-01 06:04 SSW 17 27 86 10.58 34
2021-12-01 05:04 S 14 26 92 10.58 33
2021-12-01 04:04 SSW 16 29 98 10.58 33
2021-12-01 03:04 SSW 20 33 96 10.58 33
2021-12-01 02:04 SSW 23 36 94 10.58 32
2021-12-01 01:04 S 17 23 94 10.58 31
2021-12-01 00:04 SSW 11 25 91 10.58 31
2021-11-30 23:04 SSW 14 25 89 10.58 31
2021-11-30 22:04 SSW 15 23 86 10.58 31
2021-11-30 21:04 SSW 12 28 86 10.58 31
2021-11-30 20:04 SSW 20 32 84 10.58 30
2021-11-30 19:04 SSW 23 30 81 10.58 29
2021-11-30 18:04 SSW 8 13 96 10.58 23
2021-11-30 17:04 S 9 17 83 10.58 25
2021-11-30 16:04 S 10 35 67 10.58 29